createdAt,value
2022-08-29T00:01:46.492Z,23.60
2022-08-29T00:04:19.996Z,23.60
2022-08-29T00:06:53.304Z,23.60
2022-08-29T00:09:26.856Z,23.59
2022-08-29T00:12:00.326Z,23.61
2022-08-29T00:14:34.672Z,23.61
2022-08-29T00:17:08.818Z,23.62
2022-08-29T00:19:42.231Z,23.62
2022-08-29T00:22:15.422Z,23.61
2022-08-29T00:24:49.108Z,23.58
2022-08-29T00:27:22.425Z,23.56
2022-08-29T00:29:56.305Z,23.55
2022-08-29T00:32:35.757Z,23.56
2022-08-29T00:35:12.293Z,23.55
2022-08-29T00:37:46.311Z,23.53
2022-08-29T00:40:22.871Z,23.48
2022-08-29T00:42:56.381Z,23.43
2022-08-29T00:45:30.332Z,23.42
2022-08-29T00:48:07.406Z,23.42
2022-08-29T00:50:45.088Z,23.39
2022-08-29T00:53:20.929Z,23.42
2022-08-29T00:55:54.422Z,23.43
2022-08-29T00:58:30.602Z,23.43
2022-08-29T01:01:04.358Z,23.44
2022-08-29T01:03:42.737Z,23.42
2022-08-29T01:06:17.292Z,23.43
2022-08-29T01:08:57.376Z,23.43
2022-08-29T01:11:50.338Z,23.41
2022-08-29T01:14:25.790Z,23.38
2022-08-29T01:17:01.895Z,23.34
2022-08-29T01:19:47.212Z,23.31
2022-08-29T01:22:41.273Z,23.27
2022-08-29T01:25:18.460Z,23.23
2022-08-29T01:27:58.663Z,23.20
2022-08-29T01:30:32.369Z,23.15
2022-08-29T01:33:05.974Z,23.12
2022-08-29T01:35:40.164Z,23.08
2022-08-29T01:38:28.096Z,22.98
2022-08-29T01:41:02.425Z,22.92
2022-08-29T01:43:42.926Z,22.84
2022-08-29T01:46:18.364Z,22.73
2022-08-29T01:48:51.837Z,22.70
2022-08-29T01:51:25.985Z,22.72
2022-08-29T01:53:59.487Z,22.76
2022-08-29T01:56:34.884Z,22.79
2022-08-29T01:59:11.185Z,22.80
2022-08-29T02:01:49.318Z,22.86
2022-08-29T02:04:23.496Z,22.92
2022-08-29T02:06:57.295Z,22.93
2022-08-29T02:09:31.769Z,22.93
2022-08-29T02:12:07.455Z,22.93
2022-08-29T02:14:40.920Z,22.92
2022-08-29T02:17:14.814Z,22.93
2022-08-29T02:19:48.181Z,22.94
2022-08-29T02:22:21.882Z,22.94
2022-08-29T02:24:55.770Z,22.90
2022-08-29T02:27:29.676Z,22.90
2022-08-29T02:30:03.114Z,22.91
2022-08-29T02:32:36.707Z,22.93
2022-08-29T02:35:10.605Z,22.94
2022-08-29T02:37:44.784Z,22.95
2022-08-29T02:40:18.486Z,22.96
2022-08-29T02:42:52.059Z,22.99
2022-08-29T02:45:26.271Z,23.04
2022-08-29T02:48:00.059Z,23.06
2022-08-29T02:50:33.547Z,23.09
2022-08-29T02:53:07.011Z,23.10
2022-08-29T02:55:40.559Z,23.12
2022-08-29T02:58:14.366Z,23.11
2022-08-29T03:00:48.399Z,23.12
2022-08-29T03:03:22.782Z,23.14
2022-08-29T03:05:57.091Z,23.13
2022-08-29T03:08:31.148Z,23.12
2022-08-29T03:11:05.391Z,23.11
2022-08-29T03:13:39.344Z,23.11
2022-08-29T03:16:12.993Z,23.12
2022-08-29T03:18:46.752Z,23.13
2022-08-29T03:21:23.005Z,23.12
2022-08-29T03:23:57.326Z,23.12
2022-08-29T03:26:30.876Z,23.14
2022-08-29T03:29:04.338Z,23.15
2022-08-29T03:31:37.749Z,23.15
2022-08-29T03:34:11.196Z,23.17
2022-08-29T03:36:44.822Z,23.16
2022-08-29T03:39:17.981Z,23.15
2022-08-29T03:41:51.552Z,23.19
2022-08-29T03:44:25.391Z,23.21
2022-08-29T03:46:59.089Z,23.23
2022-08-29T03:49:32.786Z,23.25
2022-08-29T03:52:06.440Z,23.27
2022-08-29T03:54:40.186Z,23.29
2022-08-29T03:57:13.647Z,23.30
2022-08-29T03:59:48.555Z,23.33
2022-08-29T04:02:27.829Z,23.34
2022-08-29T04:05:09.011Z,23.35
2022-08-29T04:07:49.670Z,23.34
2022-08-29T04:10:27.273Z,23.34
2022-08-29T04:13:00.822Z,23.33
2022-08-29T04:15:34.593Z,23.31
2022-08-29T04:18:11.209Z,23.31
2022-08-29T04:20:46.284Z,23.28
2022-08-29T04:23:19.815Z,23.28
2022-08-29T04:26:07.277Z,23.29
2022-08-29T04:28:47.925Z,23.26
2022-08-29T04:31:22.481Z,23.24
2022-08-29T04:33:55.871Z,23.25
2022-08-29T04:36:30.212Z,23.25
2022-08-29T04:39:03.743Z,23.26
2022-08-29T04:41:37.653Z,23.24
2022-08-29T04:44:12.385Z,23.21
2022-08-29T04:46:45.875Z,23.21
2022-08-29T04:49:20.048Z,23.19
2022-08-29T04:51:55.568Z,23.19
2022-08-29T04:54:28.871Z,23.17
2022-08-29T04:57:05.577Z,23.15
2022-08-29T04:59:40.193Z,23.12
2022-08-29T05:02:13.970Z,23.11
2022-08-29T05:04:48.521Z,23.11
2022-08-29T05:07:22.773Z,23.07
2022-08-29T05:10:01.345Z,23.05
2022-08-29T05:12:33.969Z,23.05
2022-08-29T05:15:08.829Z,23.02
2022-08-29T05:17:42.445Z,23.01
2022-08-29T05:20:17.321Z,23.02
2022-08-29T05:22:50.903Z,23.05
2022-08-29T05:25:24.540Z,23.06
2022-08-29T05:27:58.073Z,23.05
2022-08-29T05:30:34.941Z,23.02
2022-08-29T05:33:09.219Z,22.98
2022-08-29T05:35:42.443Z,22.96
2022-08-29T05:38:16.589Z,22.95
2022-08-29T05:40:50.011Z,22.97
2022-08-29T05:43:23.554Z,22.96
2022-08-29T05:46:04.333Z,22.93
2022-08-29T05:48:41.242Z,22.91
2022-08-29T05:51:21.610Z,22.88
2022-08-29T05:53:55.096Z,22.88
2022-08-29T05:56:30.769Z,22.89
2022-08-29T05:59:04.357Z,22.88
2022-08-29T06:01:37.858Z,22.90
2022-08-29T06:04:11.797Z,22.92
2022-08-29T06:06:44.937Z,22.98
2022-08-29T06:09:18.527Z,23.06
2022-08-29T06:11:54.691Z,23.15
2022-08-29T06:14:29.151Z,23.25
2022-08-29T06:17:02.590Z,23.28
2022-08-29T06:19:36.367Z,23.30
2022-08-29T06:22:11.037Z,23.34
2022-08-29T06:24:45.621Z,23.41
2022-08-29T06:27:20.738Z,23.53
2022-08-29T06:29:53.902Z,23.63
2022-08-29T06:32:27.633Z,23.71
2022-08-29T06:35:01.670Z,23.77
2022-08-29T06:37:35.537Z,23.80
2022-08-29T06:40:10.756Z,23.87
2022-08-29T06:42:44.302Z,23.94
2022-08-29T06:45:17.813Z,23.99
2022-08-29T06:47:51.546Z,24.06
2022-08-29T06:50:25.122Z,24.08
2022-08-29T06:53:09.331Z,24.10
2022-08-29T06:55:52.633Z,24.12
2022-08-29T06:58:26.727Z,24.13
2022-08-29T07:01:00.305Z,24.18
2022-08-29T07:03:33.549Z,24.19
2022-08-29T07:06:07.485Z,24.14
2022-08-29T07:08:55.422Z,24.10
2022-08-29T07:11:31.712Z,24.09
2022-08-29T07:14:06.537Z,24.10
2022-08-29T07:16:40.546Z,24.12
2022-08-29T07:19:14.198Z,24.13
2022-08-29T07:21:49.264Z,24.12
2022-08-29T07:24:24.866Z,24.10
2022-08-29T07:26:58.803Z,24.06
2022-08-29T07:29:32.285Z,24.02
2022-08-29T07:32:06.058Z,23.93
2022-08-29T07:34:39.672Z,23.86
2022-08-29T07:37:13.103Z,23.77
2022-08-29T07:39:46.763Z,23.75
2022-08-29T07:42:20.162Z,23.84
2022-08-29T07:44:53.568Z,23.91
2022-08-29T07:47:27.535Z,24.14
2022-08-29T07:50:01.953Z,24.28
2022-08-29T07:52:35.945Z,24.27
2022-08-29T07:55:10.698Z,24.29
2022-08-29T07:57:46.638Z,24.31
2022-08-29T08:00:20.135Z,24.27
2022-08-29T08:02:53.549Z,24.20
2022-08-29T08:05:27.902Z,24.14
2022-08-29T08:08:05.260Z,24.09
2022-08-29T08:10:43.421Z,24.04
2022-08-29T08:13:17.456Z,23.97
2022-08-29T08:15:50.981Z,23.90
2022-08-29T08:18:26.018Z,23.84
2022-08-29T08:21:00.102Z,23.78
2022-08-29T08:23:33.693Z,23.68
2022-08-29T08:26:08.126Z,23.61
2022-08-29T08:28:42.779Z,23.54
2022-08-29T08:31:17.266Z,23.51
2022-08-29T08:33:50.882Z,23.53
2022-08-29T08:36:37.454Z,23.49
2022-08-29T08:39:15.150Z,23.36
2022-08-29T08:41:58.737Z,23.31
2022-08-29T08:44:52.165Z,23.27
2022-08-29T08:47:30.223Z,23.20
2022-08-29T08:50:13.370Z,23.10
2022-08-29T08:52:52.348Z,23.08
2022-08-29T08:55:35.120Z,23.07
2022-08-29T08:58:17.804Z,23.18
2022-08-29T09:00:56.971Z,23.32
2022-08-29T09:03:52.368Z,23.45
2022-08-29T09:06:40.501Z,23.53
2022-08-29T09:09:23.699Z,23.67
2022-08-29T09:12:05.666Z,23.89
2022-08-29T09:14:56.717Z,24.13
2022-08-29T09:17:37.464Z,24.29
2022-08-29T09:20:14.985Z,24.39
2022-08-29T09:23:00.056Z,24.49
2022-08-29T09:25:37.096Z,24.51
2022-08-29T09:28:12.431Z,24.54
2022-08-29T09:31:07.810Z,24.66
2022-08-29T09:33:46.696Z,24.75
2022-08-29T09:36:40.244Z,24.85
2022-08-29T09:39:25.488Z,24.96
2022-08-29T09:42:02.330Z,25.01
2022-08-29T09:44:37.613Z,25.08
2022-08-29T09:47:16.300Z,25.12
2022-08-29T09:50:08.140Z,25.20
2022-08-29T09:52:52.781Z,25.34
2022-08-29T09:55:45.279Z,25.43
2022-08-29T09:58:39.716Z,25.63
2022-08-29T10:01:26.991Z,25.84
2022-08-29T10:04:05.604Z,26.23
2022-08-29T10:06:45.154Z,26.61
2022-08-29T10:09:30.519Z,26.68
2022-08-29T10:12:10.320Z,26.60
2022-08-29T10:14:50.550Z,26.54
2022-08-29T10:17:48.665Z,26.61
2022-08-29T10:20:21.482Z,26.65
2022-08-29T10:23:02.739Z,26.54
2022-08-29T10:25:39.823Z,26.37
2022-08-29T10:28:20.108Z,26.33
2022-08-29T10:30:57.948Z,26.21
2022-08-29T10:33:47.655Z,26.08
2022-08-29T10:36:24.264Z,26.09
2022-08-29T10:39:04.765Z,26.06
2022-08-29T10:41:50.264Z,26.14
2022-08-29T10:44:35.644Z,26.27
2022-08-29T10:47:26.102Z,26.32
2022-08-29T10:50:42.548Z,26.25
2022-08-29T10:53:21.594Z,26.37
2022-08-29T10:56:00.263Z,26.53
2022-08-29T10:58:50.133Z,26.65
2022-08-29T11:01:29.838Z,26.61
2022-08-29T11:04:17.982Z,26.56
2022-08-29T11:07:02.495Z,26.57
2022-08-29T11:09:41.247Z,26.57
2022-08-29T11:12:19.360Z,26.62
2022-08-29T11:14:59.052Z,26.67
2022-08-29T11:17:36.273Z,26.59
2022-08-29T11:20:16.202Z,26.54
2022-08-29T11:22:53.753Z,26.65
2022-08-29T11:25:28.137Z,26.72
2022-08-29T11:28:10.784Z,26.69
2022-08-29T11:30:49.236Z,26.73
2022-08-29T11:33:34.454Z,26.79
2022-08-29T11:36:30.695Z,26.91
2022-08-29T11:39:36.740Z,27.04
2022-08-29T11:42:13.760Z,27.12
2022-08-29T11:44:51.240Z,27.16
2022-08-29T11:47:41.503Z,27.16
2022-08-29T11:50:30.201Z,27.08
2022-08-29T11:53:16.789Z,26.93
2022-08-29T11:56:27.921Z,26.79
2022-08-29T11:59:03.789Z,26.64
2022-08-29T12:02:02.717Z,26.67
2022-08-29T12:04:56.976Z,26.82
2022-08-29T12:07:42.771Z,26.96
2022-08-29T12:10:28.556Z,27.08
2022-08-29T12:13:03.941Z,27.45
2022-08-29T12:15:53.603Z,28.03
2022-08-29T12:18:47.009Z,28.72
2022-08-29T12:21:52.429Z,29.87
2022-08-29T12:24:43.274Z,30.08
2022-08-29T12:27:50.134Z,29.99
2022-08-29T12:30:24.140Z,29.63
2022-08-29T12:33:07.041Z,29.24
2022-08-29T12:36:05.896Z,28.79
2022-08-29T12:38:50.558Z,28.70
2022-08-29T12:41:51.430Z,28.78
2022-08-29T12:44:31.266Z,29.17
2022-08-29T12:47:11.069Z,29.26
2022-08-29T12:49:51.988Z,29.12
2022-08-29T12:52:32.458Z,28.91
2022-08-29T12:55:28.723Z,28.63
2022-08-29T12:58:02.659Z,28.66
2022-08-29T13:00:37.191Z,28.74
2022-08-29T13:03:15.404Z,28.65
2022-08-29T13:05:47.857Z,28.89
2022-08-29T13:08:33.972Z,28.64
2022-08-29T13:11:10.377Z,28.25
2022-08-29T13:13:43.839Z,28.13
2022-08-29T13:16:30.627Z,27.93
2022-08-29T13:19:11.930Z,27.69
2022-08-29T13:21:45.866Z,27.52
2022-08-29T13:24:22.250Z,27.48
2022-08-29T13:27:05.389Z,27.39
2022-08-29T13:29:42.353Z,27.32
2022-08-29T13:32:32.755Z,27.26
2022-08-29T13:35:20.309Z,27.31
2022-08-29T13:38:19.631Z,27.33
2022-08-29T13:40:55.247Z,27.28
2022-08-29T13:43:37.925Z,27.32
2022-08-29T13:46:24.036Z,27.37
2022-08-29T13:49:05.100Z,27.38
2022-08-29T13:51:38.531Z,27.36
2022-08-29T13:54:12.422Z,27.35
2022-08-29T13:56:48.883Z,27.38
2022-08-29T13:59:24.521Z,27.43
2022-08-29T14:02:13.385Z,27.44
2022-08-29T14:04:49.044Z,27.35
2022-08-29T14:07:30.732Z,27.36
2022-08-29T14:10:04.512Z,27.28
2022-08-29T14:12:37.626Z,27.22
2022-08-29T14:15:17.940Z,27.16
2022-08-29T14:17:51.601Z,27.11
2022-08-29T14:20:25.235Z,27.05
2022-08-29T14:22:58.854Z,27.01
2022-08-29T14:25:32.706Z,27.02
2022-08-29T14:28:07.082Z,27.06
2022-08-29T14:30:40.448Z,27.05
2022-08-29T14:33:23.918Z,26.96
2022-08-29T14:35:57.617Z,26.93
2022-08-29T14:38:34.580Z,26.90
2022-08-29T14:41:07.962Z,26.88
2022-08-29T14:43:41.861Z,26.86
2022-08-29T14:46:15.314Z,26.85
2022-08-29T14:48:49.081Z,26.84
2022-08-29T14:51:23.092Z,26.81
2022-08-29T14:53:56.852Z,26.72
2022-08-29T14:56:50.121Z,26.69
2022-08-29T14:59:25.917Z,26.65
2022-08-29T15:01:59.485Z,26.56
2022-08-29T15:04:37.371Z,26.48
2022-08-29T15:07:15.704Z,26.51
2022-08-29T15:09:49.314Z,26.54
2022-08-29T15:12:25.347Z,26.50
2022-08-29T15:14:58.891Z,26.45
2022-08-29T15:17:32.447Z,26.45
2022-08-29T15:23:01.732Z,26.44
2022-08-29T15:25:36.057Z,26.41
2022-08-29T15:28:11.581Z,26.39
2022-08-29T15:30:47.620Z,26.37
2022-08-29T15:33:21.326Z,26.37
2022-08-29T15:35:55.330Z,26.30
2022-08-29T15:38:28.992Z,26.24
2022-08-29T15:41:02.830Z,26.22
2022-08-29T15:43:37.169Z,26.15
2022-08-29T15:46:10.505Z,26.07
2022-08-29T15:48:43.674Z,26.02
2022-08-29T15:51:17.422Z,26.02
2022-08-29T15:53:50.791Z,26.00
2022-08-29T15:56:23.944Z,25.96
2022-08-29T15:58:58.706Z,25.94
2022-08-29T16:01:32.329Z,25.91
2022-08-29T16:04:06.888Z,25.88
2022-08-29T16:06:40.196Z,25.86
2022-08-29T16:09:15.735Z,25.83
2022-08-29T16:11:50.633Z,25.79
2022-08-29T16:17:19.399Z,25.70
2022-08-29T16:19:52.936Z,25.68
2022-08-29T16:22:26.797Z,25.67
2022-08-29T16:25:00.397Z,25.68
2022-08-29T16:27:33.735Z,25.68
2022-08-29T16:30:10.214Z,25.67
2022-08-29T16:32:43.629Z,25.63
2022-08-29T16:35:17.277Z,25.58
2022-08-29T16:38:02.329Z,25.55
2022-08-29T16:40:37.244Z,25.54
2022-08-29T16:43:12.058Z,25.51
2022-08-29T16:45:45.781Z,25.49
2022-08-29T16:48:19.754Z,25.45
2022-08-29T16:50:54.187Z,25.39
2022-08-29T16:53:27.361Z,25.31
2022-08-29T16:56:02.902Z,25.26
2022-08-29T16:58:53.984Z,25.22
2022-08-29T17:01:27.798Z,25.15
2022-08-29T17:04:02.966Z,25.09
2022-08-29T17:06:36.877Z,25.05
2022-08-29T17:09:09.467Z,25.00
2022-08-29T17:11:41.587Z,24.96
2022-08-29T17:14:14.653Z,24.90
2022-08-29T17:16:50.557Z,24.85
2022-08-29T17:19:25.659Z,24.78
2022-08-29T17:21:59.515Z,24.72
2022-08-29T17:24:33.125Z,24.66
2022-08-29T17:27:06.745Z,24.60
2022-08-29T17:29:42.317Z,24.54
2022-08-29T17:32:16.274Z,24.47
2022-08-29T17:34:50.632Z,24.43
2022-08-29T17:37:24.341Z,24.38
2022-08-29T17:39:58.082Z,24.31
2022-08-29T17:42:32.656Z,24.27
2022-08-29T17:45:06.989Z,24.21
2022-08-29T17:47:40.229Z,24.16
2022-08-29T17:50:15.070Z,24.11
2022-08-29T17:52:48.319Z,24.05
2022-08-29T17:55:21.615Z,24.00
2022-08-29T17:57:55.118Z,23.96
2022-08-29T18:00:29.131Z,23.93
2022-08-29T18:03:02.596Z,23.91
2022-08-29T18:05:36.107Z,23.87
2022-08-29T18:08:09.729Z,23.82
2022-08-29T18:10:43.164Z,23.77
2022-08-29T18:13:21.432Z,23.73
2022-08-29T18:15:55.421Z,23.69
2022-08-29T18:18:28.974Z,23.64
2022-08-29T18:21:03.101Z,23.60
2022-08-29T18:23:36.881Z,23.56
2022-08-29T18:26:10.288Z,23.50
2022-08-29T18:28:43.550Z,23.47
2022-08-29T18:31:18.457Z,23.45
2022-08-29T18:34:01.261Z,23.42
2022-08-29T18:36:37.666Z,23.38
2022-08-29T18:39:12.043Z,23.32
2022-08-29T18:41:45.656Z,23.30
2022-08-29T18:44:19.277Z,23.26
2022-08-29T18:46:52.619Z,23.24
2022-08-29T18:49:47.253Z,23.19
2022-08-29T18:52:21.951Z,23.18
2022-08-29T18:54:55.546Z,23.14
2022-08-29T18:57:29.005Z,23.11
2022-08-29T19:00:02.463Z,23.10
2022-08-29T19:02:35.949Z,23.06
2022-08-29T19:05:11.393Z,23.03
2022-08-29T19:07:45.271Z,23.02
2022-08-29T19:10:18.654Z,23.00
2022-08-29T19:12:51.858Z,22.96
2022-08-29T19:15:27.801Z,22.93
2022-08-29T19:18:02.098Z,22.90
2022-08-29T19:20:53.562Z,22.86
2022-08-29T19:23:27.480Z,22.81
2022-08-29T19:26:00.821Z,22.76
2022-08-29T19:28:34.939Z,22.71
2022-08-29T19:31:09.494Z,22.65
2022-08-29T19:33:43.347Z,22.62
2022-08-29T19:36:17.931Z,22.56
2022-08-29T19:38:51.911Z,22.51
2022-08-29T19:41:25.530Z,22.45
2022-08-29T19:44:00.611Z,22.40
2022-08-29T19:46:36.839Z,22.34
2022-08-29T19:49:10.527Z,22.29
2022-08-29T19:51:44.460Z,22.26
2022-08-29T19:54:18.090Z,22.25
2022-08-29T19:56:51.671Z,22.22
2022-08-29T19:59:24.864Z,22.19
2022-08-29T20:01:58.341Z,22.17
2022-08-29T20:04:32.139Z,22.14
2022-08-29T20:07:05.664Z,22.10
2022-08-29T20:09:39.966Z,22.05
2022-08-29T20:12:13.359Z,22.01
2022-08-29T20:14:47.481Z,22.00
2022-08-29T20:17:21.157Z,21.95
2022-08-29T20:19:54.321Z,21.91
2022-08-29T20:22:29.799Z,21.88
2022-08-29T20:25:03.612Z,21.87
2022-08-29T20:27:37.650Z,21.85
2022-08-29T20:30:14.831Z,21.83
2022-08-29T20:32:49.612Z,21.81
2022-08-29T20:35:38.051Z,21.79
2022-08-29T20:38:09.804Z,21.76
2022-08-29T20:40:47.088Z,21.72
2022-08-29T20:43:21.340Z,21.69
2022-08-29T20:45:55.237Z,21.68
2022-08-29T20:48:32.522Z,21.66
2022-08-29T20:51:07.699Z,21.65
2022-08-29T20:53:42.100Z,21.61
2022-08-29T20:56:15.932Z,21.55
2022-08-29T20:58:49.312Z,21.51
2022-08-29T21:01:23.053Z,21.46
2022-08-29T21:04:14.048Z,21.43
2022-08-29T21:06:47.612Z,21.38
2022-08-29T21:09:22.441Z,21.35
2022-08-29T21:11:56.504Z,21.34
2022-08-29T21:14:30.599Z,21.32
2022-08-29T21:17:05.182Z,21.31
2022-08-29T21:19:39.968Z,21.31
2022-08-29T21:22:14.777Z,21.30
2022-08-29T21:24:48.613Z,21.27
2022-08-29T21:27:22.211Z,21.25
2022-08-29T21:29:58.647Z,21.22
2022-08-29T21:32:32.056Z,21.21
2022-08-29T21:35:05.804Z,21.19
2022-08-29T21:37:39.977Z,21.14
2022-08-29T21:40:14.732Z,21.09
2022-08-29T21:42:48.662Z,21.06
2022-08-29T21:45:22.328Z,21.05
2022-08-29T21:47:58.810Z,21.02
2022-08-29T21:50:32.823Z,20.97
2022-08-29T21:53:06.110Z,20.95
2022-08-29T21:55:39.864Z,20.90
2022-08-29T21:58:13.250Z,20.87
2022-08-29T22:00:46.470Z,20.86
2022-08-29T22:03:20.018Z,20.83
2022-08-29T22:05:54.819Z,20.77
2022-08-29T22:08:28.187Z,20.73
2022-08-29T22:11:01.929Z,20.71
2022-08-29T22:13:35.114Z,20.71
2022-08-29T22:16:26.066Z,20.71
2022-08-29T22:19:04.983Z,20.71
2022-08-29T22:21:41.334Z,20.68
2022-08-29T22:24:16.169Z,20.64
2022-08-29T22:26:50.679Z,20.59
2022-08-29T22:29:24.666Z,20.55
2022-08-29T22:31:58.072Z,20.53
2022-08-29T22:34:31.447Z,20.53
2022-08-29T22:37:04.685Z,20.55
2022-08-29T22:39:38.335Z,20.54
2022-08-29T22:42:13.193Z,20.51
2022-08-29T22:45:03.276Z,20.48
2022-08-29T22:47:37.786Z,20.45
2022-08-29T22:50:14.628Z,20.40
2022-08-29T22:52:49.147Z,20.37
2022-08-29T22:57:57.555Z,20.35
2022-08-29T23:00:31.076Z,20.32
2022-08-29T23:03:04.637Z,20.33
2022-08-29T23:05:38.279Z,20.33
2022-08-29T23:08:11.419Z,20.31
2022-08-29T23:10:49.093Z,20.29
2022-08-29T23:13:23.210Z,20.27
2022-08-29T23:15:56.787Z,20.25
2022-08-29T23:18:30.061Z,20.24
2022-08-29T23:21:03.579Z,20.25
2022-08-29T23:23:38.525Z,20.26
2022-08-29T23:26:11.741Z,20.25
2022-08-29T23:28:45.466Z,20.24
2022-08-29T23:31:20.635Z,20.23
2022-08-29T23:33:55.047Z,20.19
2022-08-29T23:36:28.724Z,20.15
2022-08-29T23:39:01.901Z,20.16
2022-08-29T23:41:35.116Z,20.17
2022-08-29T23:44:08.723Z,20.17
2022-08-29T23:46:42.155Z,20.15
2022-08-29T23:49:15.524Z,20.13
2022-08-29T23:51:49.140Z,20.09
2022-08-29T23:54:22.675Z,20.05
2022-08-29T23:56:56.585Z,20.04
2022-08-29T23:59:47.179Z,20.00
